sensor_id;sensor_type;location;lat;lon;timestamp;P1;durP1;ratioP1;P2;durP2;ratioP2
54575;SDS011;40472;53.486;14.542;2022-09-13T00:00:33;8.48;;;5.97;;
54575;SDS011;40472;53.486;14.542;2022-09-13T00:03:00;11.93;;;6.43;;
54575;SDS011;40472;53.486;14.542;2022-09-13T00:05:26;9.18;;;5.80;;
54575;SDS011;40472;53.486;14.542;2022-09-13T00:07:52;10.82;;;5.53;;
54575;SDS011;40472;53.486;14.542;2022-09-13T00:10:19;11.27;;;5.93;;
54575;SDS011;40472;53.486;14.542;2022-09-13T00:12:46;8.35;;;6.30;;
54575;SDS011;40472;53.486;14.542;2022-09-13T00:15:12;12.05;;;6.60;;
54575;SDS011;40472;53.486;14.542;2022-09-13T00:17:39;11.70;;;6.15;;
54575;SDS011;40472;53.486;14.542;2022-09-13T00:20:05;11.93;;;6.68;;
54575;SDS011;40472;53.486;14.542;2022-09-13T00:22:31;9.18;;;6.68;;
54575;SDS011;40472;53.486;14.542;2022-09-13T00:24:57;13.00;;;6.55;;
54575;SDS011;40472;53.486;14.542;2022-09-13T00:27:23;8.68;;;5.95;;
54575;SDS011;40472;53.486;14.542;2022-09-13T00:29:49;10.73;;;6.47;;
54575;SDS011;40472;53.486;14.542;2022-09-13T00:32:15;11.85;;;7.70;;
54575;SDS011;40472;53.486;14.542;2022-09-13T00:34:41;10.00;;;6.50;;
54575;SDS011;40472;53.486;14.542;2022-09-13T00:37:07;9.95;;;6.05;;
54575;SDS011;40472;53.486;14.542;2022-09-13T00:39:34;13.32;;;5.90;;
54575;SDS011;40472;53.486;14.542;2022-09-13T00:42:00;12.15;;;6.85;;
54575;SDS011;40472;53.486;14.542;2022-09-13T00:47:30;10.93;;;6.40;;
54575;SDS011;40472;53.486;14.542;2022-09-13T00:50:10;8.80;;;5.32;;
54575;SDS011;40472;53.486;14.542;2022-09-13T00:52:48;11.60;;;5.78;;
54575;SDS011;40472;53.486;14.542;2022-09-13T00:55:29;13.38;;;6.63;;
54575;SDS011;40472;53.486;14.542;2022-09-13T00:58:01;13.05;;;5.95;;
54575;SDS011;40472;53.486;14.542;2022-09-13T01:00:32;9.48;;;6.25;;
54575;SDS011;40472;53.486;14.542;2022-09-13T01:02:59;10.10;;;6.55;;
54575;SDS011;40472;53.486;14.542;2022-09-13T01:05:29;8.68;;;6.53;;
54575;SDS011;40472;53.486;14.542;2022-09-13T01:07:58;10.88;;;6.43;;
54575;SDS011;40472;53.486;14.542;2022-09-13T01:10:24;10.70;;;5.28;;
54575;SDS011;40472;53.486;14.542;2022-09-13T01:15:35;8.18;;;5.65;;
54575;SDS011;40472;53.486;14.542;2022-09-13T01:18:01;10.05;;;5.70;;
54575;SDS011;40472;53.486;14.542;2022-09-13T01:20:30;6.82;;;4.78;;
54575;SDS011;40472;53.486;14.542;2022-09-13T01:23:25;7.28;;;4.68;;
54575;SDS011;40472;53.486;14.542;2022-09-13T01:31:54;8.98;;;5.07;;
54575;SDS011;40472;53.486;14.542;2022-09-13T01:57:05;5.65;;;3.45;;
54575;SDS011;40472;53.486;14.542;2022-09-13T02:02:25;4.85;;;3.40;;
54575;SDS011;40472;53.486;14.542;2022-09-13T02:07:41;3.35;;;2.78;;
54575;SDS011;40472;53.486;14.542;2022-09-13T02:10:19;6.03;;;3.10;;
54575;SDS011;40472;53.486;14.542;2022-09-13T02:13:02;6.28;;;3.53;;
54575;SDS011;40472;53.486;14.542;2022-09-13T02:15:36;6.63;;;4.20;;
54575;SDS011;40472;53.486;14.542;2022-09-13T02:18:11;7.10;;;3.42;;
54575;SDS011;40472;53.486;14.542;2022-09-13T02:20:42;6.90;;;3.72;;
54575;SDS011;40472;53.486;14.542;2022-09-13T02:23:23;5.03;;;3.85;;
54575;SDS011;40472;53.486;14.542;2022-09-13T02:25:55;4.78;;;2.97;;
54575;SDS011;40472;53.486;14.542;2022-09-13T02:28:26;4.63;;;2.85;;
54575;SDS011;40472;53.486;14.542;2022-09-13T02:30:56;4.43;;;3.13;;
54575;SDS011;40472;53.486;14.542;2022-09-13T02:33:32;5.22;;;3.75;;
54575;SDS011;40472;53.486;14.542;2022-09-13T02:36:09;7.05;;;4.40;;
54575;SDS011;40472;53.486;14.542;2022-09-13T02:38:54;5.28;;;3.55;;
54575;SDS011;40472;53.486;14.542;2022-09-13T02:43:56;4.85;;;3.50;;
54575;SDS011;40472;53.486;14.542;2022-09-13T02:54:48;4.95;;;3.10;;
54575;SDS011;40472;53.486;14.542;2022-09-13T02:57:28;4.45;;;3.13;;
54575;SDS011;40472;53.486;14.542;2022-09-13T03:00:02;5.47;;;3.60;;
54575;SDS011;40472;53.486;14.542;2022-09-13T03:02:32;4.38;;;3.08;;
54575;SDS011;40472;53.486;14.542;2022-09-13T03:04:59;4.38;;;3.33;;
54575;SDS011;40472;53.486;14.542;2022-09-13T03:07:26;4.15;;;2.60;;
54575;SDS011;40472;53.486;14.542;2022-09-13T03:09:53;4.82;;;3.22;;
54575;SDS011;40472;53.486;14.542;2022-09-13T03:12:43;5.68;;;3.05;;
54575;SDS011;40472;53.486;14.542;2022-09-13T03:15:19;5.47;;;3.70;;
54575;SDS011;40472;53.486;14.542;2022-09-13T03:18:31;4.72;;;3.28;;
54575;SDS011;40472;53.486;14.542;2022-09-13T03:24:02;4.13;;;3.10;;
54575;SDS011;40472;53.486;14.542;2022-09-13T03:26:53;5.70;;;3.28;;
54575;SDS011;40472;53.486;14.542;2022-09-13T03:29:40;6.32;;;3.90;;
54575;SDS011;40472;53.486;14.542;2022-09-13T03:32:26;4.55;;;3.60;;
54575;SDS011;40472;53.486;14.542;2022-09-13T03:40:02;7.00;;;3.85;;
54575;SDS011;40472;53.486;14.542;2022-09-13T03:42:53;5.75;;;3.70;;
54575;SDS011;40472;53.486;14.542;2022-09-13T03:45:38;6.88;;;3.35;;
54575;SDS011;40472;53.486;14.542;2022-09-13T03:48:17;6.63;;;3.72;;
54575;SDS011;40472;53.486;14.542;2022-09-13T03:50:45;4.63;;;3.47;;
54575;SDS011;40472;53.486;14.542;2022-09-13T03:53:12;6.20;;;4.00;;
54575;SDS011;40472;53.486;14.542;2022-09-13T03:55:43;4.25;;;2.92;;
54575;SDS011;40472;53.486;14.542;2022-09-13T03:58:13;5.47;;;3.10;;
54575;SDS011;40472;53.486;14.542;2022-09-13T04:00:41;5.63;;;3.85;;
54575;SDS011;40472;53.486;14.542;2022-09-13T04:03:07;5.07;;;3.97;;
54575;SDS011;40472;53.486;14.542;2022-09-13T04:05:34;6.30;;;3.45;;
54575;SDS011;40472;53.486;14.542;2022-09-13T04:08:00;4.82;;;3.70;;
54575;SDS011;40472;53.486;14.542;2022-09-13T04:10:26;6.82;;;3.97;;
54575;SDS011;40472;53.486;14.542;2022-09-13T04:12:56;7.70;;;4.85;;
54575;SDS011;40472;53.486;14.542;2022-09-13T04:15:23;10.60;;;3.58;;
54575;SDS011;40472;53.486;14.542;2022-09-13T04:17:49;4.45;;;2.95;;
54575;SDS011;40472;53.486;14.542;2022-09-13T04:20:15;3.85;;;2.53;;
54575;SDS011;40472;53.486;14.542;2022-09-13T04:22:40;7.38;;;3.80;;
54575;SDS011;40472;53.486;14.542;2022-09-13T04:25:06;4.60;;;3.40;;
54575;SDS011;40472;53.486;14.542;2022-09-13T04:27:33;5.88;;;4.13;;
54575;SDS011;40472;53.486;14.542;2022-09-13T04:30:00;4.40;;;2.88;;
54575;SDS011;40472;53.486;14.542;2022-09-13T04:32:26;5.65;;;3.47;;
54575;SDS011;40472;53.486;14.542;2022-09-13T04:34:53;6.25;;;3.25;;
54575;SDS011;40472;53.486;14.542;2022-09-13T04:37:19;5.85;;;2.80;;
54575;SDS011;40472;53.486;14.542;2022-09-13T04:39:45;13.63;;;3.20;;
54575;SDS011;40472;53.486;14.542;2022-09-13T04:42:11;3.85;;;2.60;;
54575;SDS011;40472;53.486;14.542;2022-09-13T04:44:37;5.43;;;3.58;;
54575;SDS011;40472;53.486;14.542;2022-09-13T04:47:03;4.95;;;2.88;;
54575;SDS011;40472;53.486;14.542;2022-09-13T04:49:30;3.85;;;2.92;;
54575;SDS011;40472;53.486;14.542;2022-09-13T04:51:56;7.32;;;3.53;;
54575;SDS011;40472;53.486;14.542;2022-09-13T04:54:22;4.18;;;2.58;;
54575;SDS011;40472;53.486;14.542;2022-09-13T04:56:47;5.60;;;3.65;;
54575;SDS011;40472;53.486;14.542;2022-09-13T04:59:13;6.28;;;3.47;;
54575;SDS011;40472;53.486;14.542;2022-09-13T05:01:40;4.57;;;2.78;;
54575;SDS011;40472;53.486;14.542;2022-09-13T05:04:06;5.32;;;3.28;;
54575;SDS011;40472;53.486;14.542;2022-09-13T05:06:34;4.53;;;3.05;;
54575;SDS011;40472;53.486;14.542;2022-09-13T05:09:00;5.65;;;3.38;;
54575;SDS011;40472;53.486;14.542;2022-09-13T05:11:26;5.97;;;3.33;;
54575;SDS011;40472;53.486;14.542;2022-09-13T05:13:57;5.28;;;3.25;;
54575;SDS011;40472;53.486;14.542;2022-09-13T05:16:25;4.18;;;3.20;;
54575;SDS011;40472;53.486;14.542;2022-09-13T05:18:52;6.30;;;2.47;;
54575;SDS011;40472;53.486;14.542;2022-09-13T05:21:18;6.32;;;3.00;;
54575;SDS011;40472;53.486;14.542;2022-09-13T05:23:47;6.00;;;3.63;;
54575;SDS011;40472;53.486;14.542;2022-09-13T05:26:14;4.38;;;3.42;;
54575;SDS011;40472;53.486;14.542;2022-09-13T05:28:39;4.93;;;3.75;;
54575;SDS011;40472;53.486;14.542;2022-09-13T05:31:06;5.53;;;3.72;;
54575;SDS011;40472;53.486;14.542;2022-09-13T05:33:40;5.05;;;3.40;;
54575;SDS011;40472;53.486;14.542;2022-09-13T05:36:06;5.22;;;3.13;;
54575;SDS011;40472;53.486;14.542;2022-09-13T05:38:33;4.07;;;3.08;;
54575;SDS011;40472;53.486;14.542;2022-09-13T05:41:00;5.43;;;3.67;;
54575;SDS011;40472;53.486;14.542;2022-09-13T05:43:28;5.20;;;3.75;;
54575;SDS011;40472;53.486;14.542;2022-09-13T05:46:00;4.43;;;3.53;;
54575;SDS011;40472;53.486;14.542;2022-09-13T05:48:35;6.30;;;3.88;;
54575;SDS011;40472;53.486;14.542;2022-09-13T05:51:08;4.95;;;2.95;;
54575;SDS011;40472;53.486;14.542;2022-09-13T05:53:39;5.10;;;3.40;;
54575;SDS011;40472;53.486;14.542;2022-09-13T05:56:10;3.20;;;2.42;;
54575;SDS011;40472;53.486;14.542;2022-09-13T05:58:37;9.13;;;3.25;;
54575;SDS011;40472;53.486;14.542;2022-09-13T06:01:08;7.65;;;3.65;;
54575;SDS011;40472;53.486;14.542;2022-09-13T06:03:35;5.00;;;3.55;;
54575;SDS011;40472;53.486;14.542;2022-09-13T06:06:01;6.15;;;3.50;;
54575;SDS011;40472;53.486;14.542;2022-09-13T06:08:28;8.55;;;3.88;;
54575;SDS011;40472;53.486;14.542;2022-09-13T06:10:58;5.38;;;3.47;;
54575;SDS011;40472;53.486;14.542;2022-09-13T06:13:25;4.43;;;3.13;;
54575;SDS011;40472;53.486;14.542;2022-09-13T06:15:51;5.85;;;3.25;;
54575;SDS011;40472;53.486;14.542;2022-09-13T06:18:18;4.63;;;3.58;;
54575;SDS011;40472;53.486;14.542;2022-09-13T06:20:44;5.80;;;4.18;;
54575;SDS011;40472;53.486;14.542;2022-09-13T06:23:10;4.82;;;3.70;;
54575;SDS011;40472;53.486;14.542;2022-09-13T06:25:37;5.00;;;3.33;;
54575;SDS011;40472;53.486;14.542;2022-09-13T06:28:03;7.30;;;4.07;;
54575;SDS011;40472;53.486;14.542;2022-09-13T06:30:28;8.70;;;3.47;;
54575;SDS011;40472;53.486;14.542;2022-09-13T06:32:55;6.50;;;3.53;;
54575;SDS011;40472;53.486;14.542;2022-09-13T06:35:22;3.38;;;2.15;;
54575;SDS011;40472;53.486;14.542;2022-09-13T06:37:48;5.40;;;3.33;;
54575;SDS011;40472;53.486;14.542;2022-09-13T06:40:14;5.28;;;2.83;;
54575;SDS011;40472;53.486;14.542;2022-09-13T06:42:44;5.43;;;3.88;;
54575;SDS011;40472;53.486;14.542;2022-09-13T06:45:10;4.55;;;2.72;;
54575;SDS011;40472;53.486;14.542;2022-09-13T06:47:36;6.35;;;3.58;;
54575;SDS011;40472;53.486;14.542;2022-09-13T06:50:02;5.20;;;3.65;;
54575;SDS011;40472;53.486;14.542;2022-09-13T06:52:27;6.65;;;3.67;;
54575;SDS011;40472;53.486;14.542;2022-09-13T06:54:53;5.07;;;2.90;;
54575;SDS011;40472;53.486;14.542;2022-09-13T06:57:19;5.18;;;3.63;;
54575;SDS011;40472;53.486;14.542;2022-09-13T06:59:45;5.85;;;3.90;;
54575;SDS011;40472;53.486;14.542;2022-09-13T07:02:10;5.43;;;3.97;;
54575;SDS011;40472;53.486;14.542;2022-09-13T07:04:38;5.85;;;3.95;;
54575;SDS011;40472;53.486;14.542;2022-09-13T07:07:04;3.65;;;2.78;;
54575;SDS011;40472;53.486;14.542;2022-09-13T07:09:30;5.07;;;3.70;;
54575;SDS011;40472;53.486;14.542;2022-09-13T07:11:56;6.15;;;3.85;;
54575;SDS011;40472;53.486;14.542;2022-09-13T07:14:23;4.65;;;3.15;;
54575;SDS011;40472;53.486;14.542;2022-09-13T07:16:52;4.18;;;3.20;;
54575;SDS011;40472;53.486;14.542;2022-09-13T07:19:19;6.15;;;3.28;;
54575;SDS011;40472;53.486;14.542;2022-09-13T07:21:50;5.03;;;3.05;;
54575;SDS011;40472;53.486;14.542;2022-09-13T07:24:17;5.22;;;3.03;;
54575;SDS011;40472;53.486;14.542;2022-09-13T07:26:44;5.38;;;2.88;;
54575;SDS011;40472;53.486;14.542;2022-09-13T07:29:11;4.72;;;2.80;;
54575;SDS011;40472;53.486;14.542;2022-09-13T07:31:41;5.97;;;3.75;;
54575;SDS011;40472;53.486;14.542;2022-09-13T07:34:16;5.70;;;3.17;;
54575;SDS011;40472;53.486;14.542;2022-09-13T07:36:44;5.85;;;3.13;;
54575;SDS011;40472;53.486;14.542;2022-09-13T07:39:11;5.30;;;3.45;;
54575;SDS011;40472;53.486;14.542;2022-09-13T07:41:38;8.75;;;4.22;;
54575;SDS011;40472;53.486;14.542;2022-09-13T07:44:04;4.63;;;3.30;;
54575;SDS011;40472;53.486;14.542;2022-09-13T07:46:32;7.38;;;3.38;;
54575;SDS011;40472;53.486;14.542;2022-09-13T07:49:03;4.05;;;2.92;;
54575;SDS011;40472;53.486;14.542;2022-09-13T07:51:29;4.28;;;3.40;;
54575;SDS011;40472;53.486;14.542;2022-09-13T07:54:00;4.65;;;2.92;;
54575;SDS011;40472;53.486;14.542;2022-09-13T07:56:29;9.25;;;3.60;;
54575;SDS011;40472;53.486;14.542;2022-09-13T07:58:57;4.60;;;2.60;;
54575;SDS011;40472;53.486;14.542;2022-09-13T08:01:29;7.05;;;4.18;;
54575;SDS011;40472;53.486;14.542;2022-09-13T08:04:04;4.07;;;3.10;;
54575;SDS011;40472;53.486;14.542;2022-09-13T08:06:33;5.72;;;3.50;;
54575;SDS011;40472;53.486;14.542;2022-09-13T08:08:59;6.70;;;4.70;;
54575;SDS011;40472;53.486;14.542;2022-09-13T08:11:33;9.88;;;4.07;;
54575;SDS011;40472;53.486;14.542;2022-09-13T08:14:04;6.75;;;4.18;;
54575;SDS011;40472;53.486;14.542;2022-09-13T08:16:31;7.72;;;3.25;;
54575;SDS011;40472;53.486;14.542;2022-09-13T08:18:59;10.98;;;4.38;;
54575;SDS011;40472;53.486;14.542;2022-09-13T08:21:26;5.07;;;3.88;;
54575;SDS011;40472;53.486;14.542;2022-09-13T08:23:57;7.22;;;4.35;;
54575;SDS011;40472;53.486;14.542;2022-09-13T08:26:25;9.70;;;4.38;;
54575;SDS011;40472;53.486;14.542;2022-09-13T08:29:02;5.72;;;4.07;;
54575;SDS011;40472;53.486;14.542;2022-09-13T08:31:29;5.30;;;3.90;;
54575;SDS011;40472;53.486;14.542;2022-09-13T08:33:55;6.20;;;4.38;;
54575;SDS011;40472;53.486;14.542;2022-09-13T08:36:22;8.02;;;3.88;;
54575;SDS011;40472;53.486;14.542;2022-09-13T08:38:50;8.63;;;4.20;;
54575;SDS011;40472;53.486;14.542;2022-09-13T08:44:02;8.23;;;5.00;;
54575;SDS011;40472;53.486;14.542;2022-09-13T08:49:05;9.00;;;5.35;;
54575;SDS011;40472;53.486;14.542;2022-09-13T08:51:41;5.78;;;4.30;;
54575;SDS011;40472;53.486;14.542;2022-09-13T08:54:12;5.43;;;3.50;;
54575;SDS011;40472;53.486;14.542;2022-09-13T08:56:45;5.45;;;4.05;;
54575;SDS011;40472;53.486;14.542;2022-09-13T09:02:28;5.68;;;4.38;;
54575;SDS011;40472;53.486;14.542;2022-09-13T09:05:13;7.45;;;4.47;;
54575;SDS011;40472;53.486;14.542;2022-09-13T09:07:45;7.75;;;4.45;;
54575;SDS011;40472;53.486;14.542;2022-09-13T09:10:25;5.93;;;4.28;;
54575;SDS011;40472;53.486;14.542;2022-09-13T09:15:59;6.70;;;3.88;;
54575;SDS011;40472;53.486;14.542;2022-09-13T09:18:31;8.38;;;4.30;;
54575;SDS011;40472;53.486;14.542;2022-09-13T09:21:03;7.40;;;5.03;;
54575;SDS011;40472;53.486;14.542;2022-09-13T09:28:49;5.25;;;3.42;;
54575;SDS011;40472;53.486;14.542;2022-09-13T09:37:16;4.72;;;3.60;;
54575;SDS011;40472;53.486;14.542;2022-09-13T09:39:45;11.02;;;5.10;;
54575;SDS011;40472;53.486;14.542;2022-09-13T09:42:12;8.23;;;4.78;;
54575;SDS011;40472;53.486;14.542;2022-09-13T09:44:49;9.25;;;4.82;;
54575;SDS011;40472;53.486;14.542;2022-09-13T09:55:36;9.35;;;5.15;;
54575;SDS011;40472;53.486;14.542;2022-09-13T09:58:05;8.32;;;5.13;;
54575;SDS011;40472;53.486;14.542;2022-09-13T10:00:36;10.45;;;5.88;;
54575;SDS011;40472;53.486;14.542;2022-09-13T10:03:16;7.93;;;5.28;;
54575;SDS011;40472;53.486;14.542;2022-09-13T10:06:03;7.50;;;4.75;;
54575;SDS011;40472;53.486;14.542;2022-09-13T10:08:32;12.73;;;5.40;;
54575;SDS011;40472;53.486;14.542;2022-09-13T10:11:01;6.30;;;4.07;;
54575;SDS011;40472;53.486;14.542;2022-09-13T10:13:28;9.52;;;4.95;;
54575;SDS011;40472;53.486;14.542;2022-09-13T10:15:55;10.60;;;5.45;;
54575;SDS011;40472;53.486;14.542;2022-09-13T10:18:23;9.02;;;5.35;;
54575;SDS011;40472;53.486;14.542;2022-09-13T10:21:02;5.88;;;4.03;;
54575;SDS011;40472;53.486;14.542;2022-09-13T10:23:44;10.18;;;5.38;;
54575;SDS011;40472;53.486;14.542;2022-09-13T10:26:18;9.90;;;5.95;;
54575;SDS011;40472;53.486;14.542;2022-09-13T10:31:30;11.05;;;5.72;;
54575;SDS011;40472;53.486;14.542;2022-09-13T10:36:35;11.05;;;5.72;;
54575;SDS011;40472;53.486;14.542;2022-09-13T10:41:31;9.38;;;6.38;;
54575;SDS011;40472;53.486;14.542;2022-09-13T10:44:03;8.63;;;5.13;;
54575;SDS011;40472;53.486;14.542;2022-09-13T10:46:31;9.57;;;6.35;;
54575;SDS011;40472;53.486;14.542;2022-09-13T10:49:00;8.95;;;5.80;;
54575;SDS011;40472;53.486;14.542;2022-09-13T10:56:39;12.77;;;6.03;;
54575;SDS011;40472;53.486;14.542;2022-09-13T11:04:41;7.55;;;5.28;;
54575;SDS011;40472;53.486;14.542;2022-09-13T11:10:28;9.85;;;5.40;;
54575;SDS011;40472;53.486;14.542;2022-09-13T11:29:47;12.57;;;6.38;;
54575;SDS011;40472;53.486;14.542;2022-09-13T11:32:42;10.05;;;5.85;;
54575;SDS011;40472;53.486;14.542;2022-09-13T11:43:54;8.88;;;5.15;;
54575;SDS011;40472;53.486;14.542;2022-09-13T11:46:45;10.13;;;5.63;;
54575;SDS011;40472;53.486;14.542;2022-09-13T11:52:39;8.52;;;5.57;;
54575;SDS011;40472;53.486;14.542;2022-09-13T11:55:29;8.52;;;5.18;;
54575;SDS011;40472;53.486;14.542;2022-09-13T11:58:05;8.43;;;5.45;;
54575;SDS011;40472;53.486;14.542;2022-09-13T12:00:40;8.60;;;4.80;;
54575;SDS011;40472;53.486;14.542;2022-09-13T12:05:38;9.50;;;5.22;;
54575;SDS011;40472;53.486;14.542;2022-09-13T12:08:12;8.43;;;5.10;;
54575;SDS011;40472;53.486;14.542;2022-09-13T12:13:15;8.60;;;5.18;;
54575;SDS011;40472;53.486;14.542;2022-09-13T12:15:49;9.65;;;4.43;;
54575;SDS011;40472;53.486;14.542;2022-09-13T12:20:59;7.70;;;4.80;;
54575;SDS011;40472;53.486;14.542;2022-09-13T12:23:37;9.68;;;4.30;;
54575;SDS011;40472;53.486;14.542;2022-09-13T12:26:20;9.57;;;3.80;;
54575;SDS011;40472;53.486;14.542;2022-09-13T12:29:01;5.13;;;3.45;;
54575;SDS011;40472;53.486;14.542;2022-09-13T12:31:43;5.25;;;3.15;;
54575;SDS011;40472;53.486;14.542;2022-09-13T12:34:21;8.60;;;3.92;;
54575;SDS011;40472;53.486;14.542;2022-09-13T12:57:04;5.53;;;2.15;;
54575;SDS011;40472;53.486;14.542;2022-09-13T13:03:31;2.72;;;1.90;;
54575;SDS011;40472;53.486;14.542;2022-09-13T13:05:56;3.95;;;1.70;;
54575;SDS011;40472;53.486;14.542;2022-09-13T13:08:35;5.05;;;2.47;;
54575;SDS011;40472;53.486;14.542;2022-09-13T13:11:06;4.50;;;2.03;;
54575;SDS011;40472;53.486;14.542;2022-09-13T13:13:41;8.20;;;2.42;;
54575;SDS011;40472;53.486;14.542;2022-09-13T13:18:53;2.53;;;1.67;;
54575;SDS011;40472;53.486;14.542;2022-09-13T13:36:47;3.63;;;1.90;;
54575;SDS011;40472;53.486;14.542;2022-09-13T14:16:21;4.13;;;1.80;;
54575;SDS011;40472;53.486;14.542;2022-09-13T14:24:37;4.80;;;2.17;;
54575;SDS011;40472;53.486;14.542;2022-09-13T14:27:09;3.45;;;1.80;;
54575;SDS011;40472;53.486;14.542;2022-09-13T14:29:41;7.95;;;2.10;;
54575;SDS011;40472;53.486;14.542;2022-09-13T14:32:11;5.82;;;2.00;;
54575;SDS011;40472;53.486;14.542;2022-09-13T14:34:54;9.45;;;2.08;;
54575;SDS011;40472;53.486;14.542;2022-09-13T14:37:29;6.20;;;1.85;;
54575;SDS011;40472;53.486;14.542;2022-09-13T14:42:23;4.35;;;1.80;;
54575;SDS011;40472;53.486;14.542;2022-09-13T14:44:49;3.08;;;1.67;;
54575;SDS011;40472;53.486;14.542;2022-09-13T14:49:57;4.68;;;1.75;;
54575;SDS011;40472;53.486;14.542;2022-09-13T14:52:31;3.53;;;1.70;;
54575;SDS011;40472;53.486;14.542;2022-09-13T14:55:03;5.35;;;1.90;;
54575;SDS011;40472;53.486;14.542;2022-09-13T14:57:38;3.47;;;1.63;;
54575;SDS011;40472;53.486;14.542;2022-09-13T15:02:38;4.10;;;1.55;;
54575;SDS011;40472;53.486;14.542;2022-09-13T15:05:13;4.07;;;1.98;;
54575;SDS011;40472;53.486;14.542;2022-09-13T15:07:41;3.05;;;1.67;;
54575;SDS011;40472;53.486;14.542;2022-09-13T15:10:30;3.92;;;1.55;;
54575;SDS011;40472;53.486;14.542;2022-09-13T15:15:24;3.42;;;1.30;;
54575;SDS011;40472;53.486;14.542;2022-09-13T15:20:56;3.65;;;1.40;;
54575;SDS011;40472;53.486;14.542;2022-09-13T15:23:36;2.80;;;1.40;;
54575;SDS011;40472;53.486;14.542;2022-09-13T15:26:21;4.35;;;1.55;;
54575;SDS011;40472;53.486;14.542;2022-09-13T15:31:30;4.93;;;1.45;;
54575;SDS011;40472;53.486;14.542;2022-09-13T15:36:41;5.13;;;1.83;;
54575;SDS011;40472;53.486;14.542;2022-09-13T15:41:34;8.05;;;1.23;;
54575;SDS011;40472;53.486;14.542;2022-09-13T15:44:02;1.80;;;1.30;;
54575;SDS011;40472;53.486;14.542;2022-09-13T15:46:43;2.70;;;1.40;;
54575;SDS011;40472;53.486;14.542;2022-09-13T15:49:21;6.47;;;1.27;;
54575;SDS011;40472;53.486;14.542;2022-09-13T15:51:55;4.70;;;1.30;;
54575;SDS011;40472;53.486;14.542;2022-09-13T15:54:35;3.70;;;1.75;;
54575;SDS011;40472;53.486;14.542;2022-09-13T15:57:12;2.75;;;1.20;;
54575;SDS011;40472;53.486;14.542;2022-09-13T15:59:53;6.20;;;1.70;;
54575;SDS011;40472;53.486;14.542;2022-09-13T16:04:48;3.33;;;1.50;;
54575;SDS011;40472;53.486;14.542;2022-09-13T16:07:14;3.90;;;1.60;;
54575;SDS011;40472;53.486;14.542;2022-09-13T16:09:40;2.67;;;1.30;;
54575;SDS011;40472;53.486;14.542;2022-09-13T16:12:06;8.63;;;1.42;;
54575;SDS011;40472;53.486;14.542;2022-09-13T16:14:32;5.05;;;1.50;;
54575;SDS011;40472;53.486;14.542;2022-09-13T16:17:00;6.07;;;1.42;;
54575;SDS011;40472;53.486;14.542;2022-09-13T16:19:31;3.13;;;1.23;;
54575;SDS011;40472;53.486;14.542;2022-09-13T16:21:56;4.03;;;1.35;;
54575;SDS011;40472;53.486;14.542;2022-09-13T16:24:22;3.53;;;1.17;;
54575;SDS011;40472;53.486;14.542;2022-09-13T16:26:48;8.25;;;1.63;;
54575;SDS011;40472;53.486;14.542;2022-09-13T16:29:14;6.75;;;1.42;;
54575;SDS011;40472;53.486;14.542;2022-09-13T16:31:39;5.50;;;1.30;;
54575;SDS011;40472;53.486;14.542;2022-09-13T16:34:05;6.25;;;1.50;;
54575;SDS011;40472;53.486;14.542;2022-09-13T16:36:31;6.68;;;1.50;;
54575;SDS011;40472;53.486;14.542;2022-09-13T16:38:58;6.85;;;1.92;;
54575;SDS011;40472;53.486;14.542;2022-09-13T16:41:24;3.90;;;1.58;;
54575;SDS011;40472;53.486;14.542;2022-09-13T16:43:50;9.00;;;2.00;;
54575;SDS011;40472;53.486;14.542;2022-09-13T16:46:18;8.68;;;1.60;;
54575;SDS011;40472;53.486;14.542;2022-09-13T16:48:44;5.68;;;1.52;;
54575;SDS011;40472;53.486;14.542;2022-09-13T16:51:10;3.55;;;1.20;;
54575;SDS011;40472;53.486;14.542;2022-09-13T16:53:38;6.43;;;1.60;;
54575;SDS011;40472;53.486;14.542;2022-09-13T16:56:06;3.55;;;1.35;;
54575;SDS011;40472;53.486;14.542;2022-09-13T16:58:36;3.70;;;1.10;;
54575;SDS011;40472;53.486;14.542;2022-09-13T17:01:03;4.97;;;1.63;;
54575;SDS011;40472;53.486;14.542;2022-09-13T17:03:34;2.78;;;1.75;;
54575;SDS011;40472;53.486;14.542;2022-09-13T17:06:04;7.18;;;1.48;;
54575;SDS011;40472;53.486;14.542;2022-09-13T17:08:32;4.93;;;1.20;;
54575;SDS011;40472;53.486;14.542;2022-09-13T17:10:59;2.55;;;1.15;;
54575;SDS011;40472;53.486;14.542;2022-09-13T17:13:28;2.75;;;1.17;;
54575;SDS011;40472;53.486;14.542;2022-09-13T17:15:54;6.45;;;1.60;;
54575;SDS011;40472;53.486;14.542;2022-09-13T17:18:20;4.78;;;1.13;;
54575;SDS011;40472;53.486;14.542;2022-09-13T17:20:46;8.25;;;1.40;;
54575;SDS011;40472;53.486;14.542;2022-09-13T17:23:14;6.13;;;1.17;;
54575;SDS011;40472;53.486;14.542;2022-09-13T17:25:41;6.00;;;1.10;;
54575;SDS011;40472;53.486;14.542;2022-09-13T17:28:13;11.07;;;1.48;;
54575;SDS011;40472;53.486;14.542;2022-09-13T17:30:40;4.68;;;1.35;;
54575;SDS011;40472;53.486;14.542;2022-09-13T17:33:06;4.10;;;1.15;;
54575;SDS011;40472;53.486;14.542;2022-09-13T17:35:34;8.65;;;1.33;;
54575;SDS011;40472;53.486;14.542;2022-09-13T17:38:00;10.20;;;1.77;;
54575;SDS011;40472;53.486;14.542;2022-09-13T17:40:27;15.02;;;1.30;;
54575;SDS011;40472;53.486;14.542;2022-09-13T17:42:53;12.40;;;1.40;;
54575;SDS011;40472;53.486;14.542;2022-09-13T17:45:20;5.63;;;1.52;;
54575;SDS011;40472;53.486;14.542;2022-09-13T17:47:46;9.95;;;1.73;;
54575;SDS011;40472;53.486;14.542;2022-09-13T17:50:13;5.15;;;1.35;;
54575;SDS011;40472;53.486;14.542;2022-09-13T17:52:38;4.13;;;1.00;;
54575;SDS011;40472;53.486;14.542;2022-09-13T17:55:04;9.90;;;1.08;;
54575;SDS011;40472;53.486;14.542;2022-09-13T17:57:31;4.10;;;1.30;;
54575;SDS011;40472;53.486;14.542;2022-09-13T17:59:57;4.45;;;1.08;;
54575;SDS011;40472;53.486;14.542;2022-09-13T18:02:23;3.75;;;1.08;;
54575;SDS011;40472;53.486;14.542;2022-09-13T18:04:51;5.07;;;1.70;;
54575;SDS011;40472;53.486;14.542;2022-09-13T18:07:17;6.55;;;0.77;;
54575;SDS011;40472;53.486;14.542;2022-09-13T18:09:43;5.45;;;0.95;;
54575;SDS011;40472;53.486;14.542;2022-09-13T18:12:09;7.60;;;1.60;;
54575;SDS011;40472;53.486;14.542;2022-09-13T18:14:36;4.75;;;1.13;;
54575;SDS011;40472;53.486;14.542;2022-09-13T18:17:02;8.85;;;1.00;;
54575;SDS011;40472;53.486;14.542;2022-09-13T18:19:36;9.85;;;1.23;;
54575;SDS011;40472;53.486;14.542;2022-09-13T18:22:06;3.30;;;0.98;;
54575;SDS011;40472;53.486;14.542;2022-09-13T18:24:33;4.82;;;1.15;;
54575;SDS011;40472;53.486;14.542;2022-09-13T18:26:59;5.47;;;1.20;;
54575;SDS011;40472;53.486;14.542;2022-09-13T18:29:26;10.73;;;1.27;;
54575;SDS011;40472;53.486;14.542;2022-09-13T18:31:56;6.30;;;1.25;;
54575;SDS011;40472;53.486;14.542;2022-09-13T18:34:23;3.22;;;1.13;;
54575;SDS011;40472;53.486;14.542;2022-09-13T18:36:49;7.68;;;2.13;;
54575;SDS011;40472;53.486;14.542;2022-09-13T18:39:18;4.85;;;1.08;;
54575;SDS011;40472;53.486;14.542;2022-09-13T18:41:46;7.07;;;1.50;;
54575;SDS011;40472;53.486;14.542;2022-09-13T18:44:13;6.90;;;1.38;;
54575;SDS011;40472;53.486;14.542;2022-09-13T18:46:39;5.55;;;1.20;;
54575;SDS011;40472;53.486;14.542;2022-09-13T18:49:06;5.55;;;1.48;;
54575;SDS011;40472;53.486;14.542;2022-09-13T18:51:36;9.40;;;1.75;;
54575;SDS011;40472;53.486;14.542;2022-09-13T18:54:04;3.63;;;1.70;;
54575;SDS011;40472;53.486;14.542;2022-09-13T18:56:31;9.05;;;1.90;;
54575;SDS011;40472;53.486;14.542;2022-09-13T18:58:59;8.02;;;2.22;;
54575;SDS011;40472;53.486;14.542;2022-09-13T19:01:27;4.95;;;1.80;;
54575;SDS011;40472;53.486;14.542;2022-09-13T19:03:58;9.77;;;2.35;;
54575;SDS011;40472;53.486;14.542;2022-09-13T19:06:30;13.60;;;2.72;;